Time;durP1;ratioP1;P1;durP2;ratioP2;P2;SDS_P1;SDS_P2;PMS_P1;PMS_P2;Temp;Humidity;BMP_temperature;BMP_pressure;BME280_temperature;BME280_humidity;BME280_pressure;Samples;Min_cycle;Max_cycle;Signal;HPM_P1;HPM_P2
2021/05/31 00:01:11;;;;;;;4.58;2.25;;;;;;;11.03;77.79;99528.91;129924;1101;22598;-66
2021/05/31 00:03:39;;;;;;;8.00;3.20;;;;;;;11.02;77.69;99527.26;129861;1101;22664;-66
2021/05/31 00:06:08;;;;;;;3.90;2.10;;;;;;;10.99;77.58;99531.32;129905;1101;22575;-62
2021/05/31 00:08:40;;;;;;;6.50;2.50;;;;;;;10.95;77.87;99524.77;129924;1101;23157;-62
2021/05/31 00:11:10;;;;;;;4.85;2.45;;;;;;;10.93;77.84;99530.48;129864;1101;22685;-62
2021/05/31 00:13:43;;;;;;;3.08;2.08;;;;;;;10.92;77.96;99534.28;129948;1101;22581;-62
2021/05/31 00:16:12;;;;;;;7.73;2.10;;;;;;;10.90;78.03;99533.72;129973;1101;22585;-62
2021/05/31 00:18:43;;;;;;;5.03;2.00;;;;;;;10.89;78.13;99537.52;129866;1101;22561;-62
2021/05/31 00:21:11;;;;;;;2.95;2.30;;;;;;;10.90;78.05;99532.89;129943;1101;22715;-62
2021/05/31 00:23:40;;;;;;;6.05;2.10;;;;;;;10.88;78.36;99535.88;129905;1101;22658;-62
2021/05/31 00:26:15;;;;;;;5.43;2.43;;;;;;;10.88;78.36;99530.42;129947;1101;22773;-62
2021/05/31 00:28:45;;;;;;;4.43;1.88;;;;;;;10.87;78.40;99534.23;129889;1101;22558;-62
2021/05/31 00:31:14;;;;;;;9.08;2.43;;;;;;;10.86;78.46;99532.59;129959;1101;22665;-62
2021/05/31 00:33:42;;;;;;;4.35;2.18;;;;;;;10.87;78.38;99544.31;129944;1101;22556;-62
2021/05/31 00:36:15;;;;;;;6.38;2.75;;;;;;;10.86;78.49;99542.66;129701;1101;22688;-65
2021/05/31 00:38:43;;;;;;;3.13;2.10;;;;;;;10.86;78.72;99543.48;129938;1101;22600;-66
2021/05/31 00:41:15;;;;;;;8.90;2.60;;;;;;;10.84;78.80;99540.20;129886;1101;22540;-66
2021/05/31 00:43:43;;;;;;;4.48;2.48;;;;;;;10.83;78.92;99538.55;129942;1101;22621;-66
2021/05/31 00:46:11;;;;;;;4.30;2.53;;;;;;;10.84;78.71;99540.20;129908;1101;22543;-66
2021/05/31 00:48:40;;;;;;;6.73;2.93;;;;;;;10.84;79.10;99551.09;129971;1101;22673;-66
2021/05/31 00:51:10;;;;;;;6.95;2.00;;;;;;;10.83;79.33;99535.82;129927;1101;23164;-65
2021/05/31 00:53:39;;;;;;;7.98;3.00;;;;;;;10.79;79.49;99537.44;129936;1101;22601;-66
2021/05/31 00:56:07;;;;;;;6.45;2.18;;;;;;;10.78;79.46;99529.52;129805;1101;22630;-66
2021/05/31 00:58:36;;;;;;;4.95;2.65;;;;;;;10.76;79.62;99537.13;129936;1101;22678;-66
2021/05/31 01:01:06;;;;;;;7.20;2.65;;;;;;;10.74;79.78;99537.39;129936;1101;22570;-66
2021/05/31 01:03:35;;;;;;;4.38;2.75;;;;;;;10.74;80.14;99537.39;129893;1101;22712;-66
2021/05/31 01:06:06;;;;;;;8.03;2.58;;;;;;;10.73;80.00;99535.74;129914;1101;22556;-61
2021/05/31 01:08:44;;;;;;;3.58;2.55;;;;;;;10.72;80.06;99536.81;129916;1101;22543;-61
2021/05/31 01:11:13;;;;;;;6.13;2.53;;;;;;;10.72;80.09;99534.09;129898;1101;22589;-61
2021/05/31 01:14:03;;;;;;;12.10;3.18;;;;;;;10.71;80.07;99543.34;129940;1101;22628;-61
2021/05/31 01:16:51;;;;;;;7.15;2.93;;;;;;;10.71;80.07;99540.63;129719;1101;22643;-61
2021/05/31 01:19:48;;;;;;;5.43;2.55;;;;;;;10.72;79.86;99550.45;129905;1101;22556;-61
2021/05/31 01:22:18;;;;;;;10.45;4.25;;;;;;;10.74;80.12;99548.28;129531;1104;22726;-61
2021/05/31 01:24:55;;;;;;;12.30;3.55;;;;;;;10.76;79.97;99550.76;129474;1105;22669;-61
2021/05/31 01:27:26;;;;;;;;;;;;;;;10.77;79.88;99558.68;129649;1104;22665;-61
2021/05/31 01:30:16;;;;;;;9.10;2.53;;;;;;;10.76;79.92;99554.30;129592;1104;21288;-61
2021/05/31 01:32:48;;;;;;;5.63;2.20;;;;;;;10.79;79.59;99558.42;129555;1104;23537;-61
2021/05/31 01:35:28;;;;;;;5.10;2.20;;;;;;;10.79;79.48;99555.70;129440;1104;22563;-61
2021/05/31 01:37:57;;;;;;;4.95;2.30;;;;;;;10.79;79.24;99552.97;129506;1105;22545;-61
2021/05/31 01:40:25;;;;;;;8.20;2.53;;;;;;;10.80;79.16;99554.63;129625;1104;22904;-66
2021/05/31 01:42:56;;;;;;;10.40;2.03;;;;;;;10.79;79.01;99552.97;129518;1105;22680;-66
2021/05/31 01:45:24;;;;;;;6.90;2.33;;;;;;;10.78;78.63;99552.15;129198;1104;22872;-65
2021/05/31 01:47:53;;;;;;;7.80;2.35;;;;;;;10.78;78.71;99551.33;129162;1105;22876;-66
2021/05/31 01:50:21;;;;;;;5.57;2.10;;;;;;;10.78;78.52;99554.88;129213;1105;22840;-66
2021/05/31 01:52:50;;;;;;;11.73;3.08;;;;;;;10.76;78.38;99554.30;129171;1107;22732;-66
2021/05/31 01:55:19;;;;;;;6.73;2.35;;;;;;;10.75;78.13;99557.28;129305;1105;23515;-66
2021/05/31 01:57:47;;;;;;;9.40;2.35;;;;;;;10.73;77.97;99562.98;129564;1104;23399;-66
2021/05/31 02:00:16;;;;;;;6.63;2.68;;;;;;;10.69;77.78;99559.13;129635;1102;23201;-66
2021/05/31 02:17:22;;;;;;;17.50;11.28;;;;;;;10.63;78.14;99579.25;128214;1092;22832;-88
2021/05/31 02:19:52;;;;;;;15.63;7.48;;;;;;;10.63;78.26;99571.90;128218;1104;22779;-87
2021/05/31 02:22:21;;;;;;;7.45;3.98;;;;;;;10.65;78.18;99576.27;128165;1104;23576;-87
2021/05/31 02:24:50;;;;;;;7.57;3.30;;;;;;;10.65;78.04;99577.09;128068;1104;22756;-87
2021/05/31 02:27:19;;;;;;;5.50;2.57;;;;;;;10.50;77.93;99545.06;128077;1104;23713;-89
2021/05/31 02:29:47;;;;;;;8.18;2.98;;;;;;;10.65;77.80;99573.55;128036;1104;23564;-87
2021/05/31 02:32:16;;;;;;;11.33;2.83;;;;;;;10.62;77.83;99561.25;128111;1104;23314;-89
2021/05/31 02:34:45;;;;;;;11.33;2.88;;;;;;;10.62;77.85;99563.98;128406;1104;22643;-88
2021/05/31 02:37:14;;;;;;;10.40;2.45;;;;;;;10.61;77.90;99567.78;128752;1104;22818;-87
2021/05/31 02:39:42;;;;;;;12.57;3.30;;;;;;;10.60;78.12;99569.69;128088;1103;24159;-87
2021/05/31 02:42:11;;;;;;;10.03;2.77;;;;;;;10.59;77.91;99576.20;128092;1104;22783;-89
2021/05/31 02:44:39;;;;;;;5.80;2.60;;;;;;;10.58;78.09;99574.56;128142;1103;22845;-87
2021/05/31 02:47:08;;;;;;;6.40;2.70;;;;;;;10.57;78.12;99580.27;128277;1104;25245;-88
2021/05/31 02:49:37;;;;;;;6.65;2.63;;;;;;;10.55;78.14;99580.52;128137;1104;22770;-86
2021/05/31 02:52:05;;;;;;;5.80;2.28;;;;;;;10.55;78.25;99580.52;127869;1096;25745;-88
2021/05/31 02:54:34;;;;;;;11.55;2.45;;;;;;;10.54;78.07;99584.31;128116;1104;22880;-86
2021/05/31 02:57:03;;;;;;;8.10;2.88;;;;;;;10.54;77.95;99583.49;128239;1104;23319;-88
2021/05/31 02:59:31;;;;;;;8.43;2.68;;;;;;;10.53;78.23;99579.94;128144;1104;22789;-87
2021/05/31 03:02:00;;;;;;;4.10;2.50;;;;;;;10.55;78.22;99576.97;128029;1104;22822;-88
2021/05/31 03:04:29;;;;;;;14.48;3.00;;;;;;;10.55;78.02;99579.69;129090;1104;22964;-88
2021/05/31 03:06:57;;;;;;;2.98;2.30;;;;;;;10.54;78.36;99576.14;128458;1096;22783;-89
2021/05/31 03:09:26;;;;;;;9.73;3.90;;;;;;;10.55;78.66;99582.41;128214;1104;22900;-90
2021/05/31 03:11:54;;;;;;;6.73;2.90;;;;;;;10.55;78.27;99585.96;127934;1104;24132;-87
2021/05/31 03:14:22;;;;;;;7.90;3.73;;;;;;;10.55;78.76;99582.41;127831;1104;23360;-89
2021/05/31 03:16:51;;;;;;;7.23;2.80;;;;;;;10.55;78.76;99577.79;127893;1104;22938;-87
2021/05/31 03:19:20;;;;;;;7.15;2.50;;;;;;;10.57;78.85;99577.53;128027;1104;22755;-85
2021/05/31 03:21:49;;;;;;;8.23;2.70;;;;;;;10.58;78.79;99571.02;128084;1104;22749;-86
2021/05/31 03:24:17;;;;;;;9.43;3.13;;;;;;;10.60;78.96;99575.13;128082;1100;22790;-88
2021/05/31 03:26:47;;;;;;;5.18;2.65;;;;;;;10.63;79.26;99568.35;128798;1104;22662;-89
2021/05/31 03:29:15;;;;;;;11.05;2.70;;;;;;;10.67;79.08;99572.22;128928;1104;23884;-88
2021/05/31 03:31:44;;;;;;;5.37;2.70;;;;;;;10.71;78.91;99577.95;128026;1096;22816;-89
2021/05/31 03:34:12;;;;;;;6.60;3.58;;;;;;;10.73;79.04;99573.07;127967;1104;22760;-89
2021/05/31 03:36:41;;;;;;;7.30;2.70;;;;;;;10.75;79.06;99579.09;127824;1104;22765;-89
2021/05/31 03:39:09;;;;;;;3.60;2.48;;;;;;;10.76;78.82;99581.56;128084;1104;22821;-88
2021/05/31 03:41:39;;;;;;;5.53;2.60;;;;;;;10.79;78.93;99585.67;128216;1104;22888;-89
2021/05/31 03:44:07;;;;;;;7.80;2.40;;;;;;;10.81;79.05;99581.63;127970;1104;22757;-89
2021/05/31 03:46:36;;;;;;;8.78;3.10;;;;;;;10.80;78.92;99585.42;127998;1104;22790;-89
2021/05/31 03:49:05;;;;;;;9.98;3.10;;;;;;;10.83;78.87;99581.33;128090;1104;23046;-86
2021/05/31 03:51:34;;;;;;;6.65;3.55;;;;;;;10.84;79.07;99580.25;128191;1096;22811;-88
2021/05/31 03:54:03;;;;;;;4.55;2.85;;;;;;;10.85;79.00;99584.63;127963;1104;22999;-86
2021/05/31 03:56:31;;;;;;;5.85;3.25;;;;;;;10.85;78.86;99582.73;127937;1104;22779;-87
2021/05/31 03:59:00;;;;;;;4.70;2.80;;;;;;;10.87;78.68;99590.65;127720;1104;22889;-88
2021/05/31 04:01:29;;;;;;;5.23;2.70;;;;;;;10.87;78.74;99590.65;127808;1096;22833;-87
2021/05/31 04:03:58;;;;;;;3.63;2.40;;;;;;;10.86;78.70;99584.38;128119;1104;22808;-90
2021/05/31 04:11:54;;;;;;;5.40;2.78;;;;;;;10.92;78.05;99572.45;127969;1097;22940;-89
2021/05/31 04:14:22;;;;;;;9.58;3.10;;;;;;;10.93;78.47;99573.27;127884;1096;22767;-88
2021/05/31 04:16:52;;;;;;;4.98;2.60;;;;;;;10.95;78.28;99582.02;127893;1104;23362;-88
2021/05/31 04:19:22;;;;;;;6.38;2.78;;;;;;;10.96;78.31;99570.83;127959;1104;22809;-88
2021/05/31 04:21:51;;;;;;;4.70;2.93;;;;;;;10.98;78.18;99574.13;129329;1104;22734;-88
2021/05/31 04:24:20;;;;;;;6.25;2.65;;;;;;;11.01;78.27;99577.41;128502;1104;22767;-87
2021/05/31 04:26:48;;;;;;;10.50;2.93;;;;;;;11.04;78.10;99582.36;127969;1104;23748;-90
2021/05/31 04:29:17;;;;;;;5.40;2.73;;;;;;;11.06;77.92;99580.20;127845;1104;22780;-88
2021/05/31 04:31:45;;;;;;;8.75;2.95;;;;;;;11.07;77.77;99585.39;128037;1104;22822;-87
2021/05/31 04:34:14;;;;;;;3.70;2.55;;;;;;;11.08;77.93;99592.49;128214;1104;22795;-90
2021/05/31 04:36:43;;;;;;;5.50;3.03;;;;;;;11.11;77.74;99591.16;128020;1104;24140;-87
2021/05/31 04:39:12;;;;;;;8.93;3.03;;;;;;;11.14;77.72;99587.89;127975;1104;24400;-85
2021/05/31 04:41:41;;;;;;;6.80;3.73;;;;;;;11.18;77.44;99591.75;127795;1104;22854;-89
2021/05/31 04:44:09;;;;;;;3.63;2.85;;;;;;;11.19;77.43;99585.21;127796;1104;23457;-87
2021/05/31 04:46:41;;;;;;;7.53;2.90;;;;;;;11.22;77.52;99590.16;127920;1104;22759;-88
2021/05/31 04:49:10;;;;;;;5.40;3.25;;;;;;;11.22;77.55;99590.16;127989;1104;22773;-86
2021/05/31 04:51:39;;;;;;;5.63;2.70;;;;;;;11.24;77.28;99597.00;127828;1096;23601;-92
2021/05/31 04:54:08;;;;;;;8.80;3.38;;;;;;;11.25;77.38;99603.27;129666;1104;23075;-87
2021/05/31 04:56:37;;;;;;;6.10;2.78;;;;;;;11.26;77.25;99596.70;129711;1104;22814;-88
2021/05/31 04:59:05;;;;;;;11.73;3.50;;;;;;;11.28;77.48;99597.27;128205;1104;22825;-88
2021/05/31 05:01:34;;;;;;;6.75;3.18;;;;;;;11.31;77.36;99603.04;127934;1105;22731;-89
2021/05/31 05:04:05;;;;;;;6.00;3.00;;;;;;;11.35;77.09;99608.80;128310;1096;22765;-87
2021/05/31 05:06:34;;;;;;;6.90;3.48;;;;;;;11.37;77.24;99603.09;127827;1104;23495;-86
2021/05/31 05:09:05;;;;;;;5.10;3.38;;;;;;;11.39;77.47;99609.11;129648;1104;22631;-89
2021/05/31 05:11:34;;;;;;;9.60;3.28;;;;;;;11.37;77.35;99606.64;129664;1104;23651;-90
2021/05/31 05:14:03;;;;;;;6.65;3.58;;;;;;;11.38;77.19;99600.10;128109;1104;23413;-88
2021/05/31 05:16:32;;;;;;;12.50;3.13;;;;;;;11.39;77.50;99599.02;128091;1104;22799;-87
2021/05/31 05:19:01;;;;;;;6.10;3.75;;;;;;;11.41;77.23;99605.02;128063;1104;23395;-90
2021/05/31 05:21:29;;;;;;;9.95;3.75;;;;;;;11.39;77.01;99592.74;128084;1104;23478;-89
2021/05/31 05:23:58;;;;;;;11.43;3.55;;;;;;;11.38;77.30;99602.01;128100;1104;23258;-87
2021/05/31 05:26:27;;;;;;;10.90;3.60;;;;;;;11.29;77.48;99590.73;128085;1104;22779;-86
2021/05/31 05:28:55;;;;;;;8.80;3.50;;;;;;;11.40;76.78;99608.03;128062;1097;26216;-85
2021/05/31 05:31:26;;;;;;;10.15;3.45;;;;;;;11.39;77.01;99604.48;127715;1098;26225;-87
2021/05/31 05:33:54;;;;;;;8.45;3.75;;;;;;;11.38;76.84;99604.73;127932;1104;22782;-87
2021/05/31 05:39:17;;;;;;;8.95;3.58;;;;;;;11.39;76.94;99609.94;127889;1104;22804;-87
2021/05/31 05:42:56;;;;;;;7.95;3.68;;;;;;;11.41;76.87;99609.64;128044;1104;23196;-88
2021/05/31 05:49:45;;;;;;;8.70;3.08;;;;;;;11.45;76.09;99611.59;129718;1104;22665;-86
2021/05/31 05:52:14;;;;;;;9.43;3.25;;;;;;;11.46;75.89;99605.06;129682;1104;23357;-89
2021/05/31 05:54:42;;;;;;;9.40;3.90;;;;;;;11.48;75.66;99610.27;128836;1104;22828;-86
2021/05/31 05:57:10;;;;;;;8.10;3.35;;;;;;;11.49;75.38;99609.17;129140;1104;22761;-88
2021/05/31 05:59:39;;;;;;;6.23;2.90;;;;;;;11.47;75.64;99609.44;127623;1104;24020;-87
2021/05/31 06:02:08;;;;;;;7.85;2.78;;;;;;;11.49;75.84;99611.91;128013;1104;22908;-89
2021/05/31 06:04:39;;;;;;;8.58;2.65;;;;;;;11.55;76.09;99614.39;128189;1104;22766;-89
2021/05/31 06:07:07;;;;;;;6.90;3.78;;;;;;;11.65;76.01;99616.39;128070;1104;22784;-89
2021/05/31 06:09:38;;;;;;;4.73;2.75;;;;;;;11.79;76.28;99620.34;128104;1099;27285;-86
2021/05/31 06:12:07;;;;;;;11.80;2.88;;;;;;;11.90;75.06;99616.58;128039;1104;22769;-86
2021/05/31 06:14:35;;;;;;;7.17;3.17;;;;;;;11.96;74.31;99620.99;128004;1104;22791;-86
2021/05/31 06:17:04;;;;;;;9.98;3.03;;;;;;;11.96;74.07;99623.72;127904;1104;22783;-86
2021/05/31 06:19:33;;;;;;;7.60;3.28;;;;;;;11.95;73.67;99619.34;127927;1104;22896;-86
2021/05/31 06:22:02;;;;;;;13.28;3.25;;;;;;;11.97;73.99;99625.34;127937;1104;22722;-87
2021/05/31 06:24:30;;;;;;;7.45;3.23;;;;;;;11.96;73.48;99620.17;127671;1104;23600;-87
2021/05/31 06:26:59;;;;;;;5.73;3.53;;;;;;;11.92;72.86;99610.85;127629;1104;23555;-88
2021/05/31 06:29:28;;;;;;;5.93;3.30;;;;;;;11.89;72.82;99611.38;127354;1104;22759;-88
2021/05/31 06:31:56;;;;;;;5.90;3.10;;;;;;;11.87;73.24;99613.55;127560;1104;22822;-90
2021/05/31 06:34:25;;;;;;;8.63;3.60;;;;;;;11.88;72.89;99621.47;127909;1104;22786;-89
2021/05/31 06:36:55;;;;;;;6.90;2.80;;;;;;;11.90;72.03;99619.30;128326;1104;22737;-89
2021/05/31 06:39:24;;;;;;;6.75;2.85;;;;;;;11.91;72.55;99620.13;128067;1104;22749;-88
2021/05/31 06:41:52;;;;;;;7.75;2.60;;;;;;;11.96;72.80;99622.90;128834;1104;22681;-87
2021/05/31 06:44:20;;;;;;;4.00;2.85;;;;;;;12.00;72.31;99626.72;128632;1104;22845;-87
2021/05/31 06:46:49;;;;;;;9.65;3.70;;;;;;;12.01;71.33;99625.64;128514;1104;22790;-86
2021/05/31 06:49:18;;;;;;;4.43;2.58;;;;;;;11.99;71.65;99622.34;128622;1104;22816;-84
2021/05/31 06:51:47;;;;;;;6.50;3.40;;;;;;;11.98;71.80;99623.43;128726;1104;22666;-85
2021/05/31 06:54:16;;;;;;;6.50;3.03;;;;;;;12.00;72.08;99621.27;129794;1104;22755;-86
2021/05/31 06:56:45;;;;;;;7.28;2.93;;;;;;;12.11;72.96;99620.25;128642;1104;22751;-86
2021/05/31 06:59:26;;;;;;;8.25;3.73;;;;;;;12.24;72.26;99625.23;128401;1104;22789;-87
2021/05/31 07:02:06;;;;;;;5.93;3.23;;;;;;;12.29;70.93;99627.96;128560;1104;23733;-84
2021/05/31 07:04:42;;;;;;;11.10;3.10;;;;;;;12.25;70.10;99623.32;128696;1104;24928;-85
2021/05/31 07:07:54;;;;;;;6.65;3.23;;;;;;;12.22;70.08;99612.92;128814;1105;22808;-85
2021/05/31 07:10:28;;;;;;;8.75;2.83;;;;;;;12.22;70.87;99615.66;127902;1099;24418;-86
2021/05/31 07:13:05;;;;;;;5.98;2.40;;;;;;;12.27;69.50;99610.19;128584;1104;23610;-86
2021/05/31 07:15:39;;;;;;;4.68;2.45;;;;;;;12.36;69.79;99612.16;128533;1104;22711;-86
2021/05/31 07:18:30;;;;;;;4.03;2.45;;;;;;;12.50;69.69;99612.48;128567;1104;22906;-85
2021/05/31 07:21:15;;;;;;;3.80;2.50;;;;;;;12.58;69.25;99603.75;128346;1104;22816;-86
2021/05/31 07:24:14;;;;;;;3.43;2.43;;;;;;;12.77;69.28;99616.92;128294;1104;23397;-84
2021/05/31 07:26:48;;;;;;;5.03;2.88;;;;;;;12.82;69.58;99628.70;128470;1104;22881;-86
2021/05/31 07:29:27;;;;;;;7.60;2.90;;;;;;;12.88;69.13;99624.88;128576;1104;23617;-86
2021/05/31 07:31:59;;;;;;;6.13;2.33;;;;;;;12.93;68.42;99619.42;128695;1104;23226;-85
2021/05/31 07:34:30;;;;;;;2.88;2.30;;;;;;;13.00;69.52;99619.14;128294;1099;24435;-83
2021/05/31 07:37:30;;;;;;;8.38;2.90;;;;;;;13.09;69.02;99615.63;128323;1104;22808;-86
2021/05/31 07:40:16;;;;;;;4.75;3.23;;;;;;;13.22;69.63;99627.15;128331;1099;22791;-85
2021/05/31 07:42:49;;;;;;;7.95;2.23;;;;;;;13.29;68.03;99622.21;129823;1104;22666;-85
2021/05/31 07:45:25;;;;;;;4.75;1.80;;;;;;;13.28;67.18;99618.65;128610;1099;22843;-85
2021/05/31 07:48:35;;;;;;;4.90;1.90;;;;;;;13.24;67.14;99616.75;128578;1104;22923;-85
2021/05/31 07:51:41;;;;;;;3.25;2.13;;;;;;;13.19;67.65;99625.77;128316;1104;22957;-86
2021/05/31 07:54:36;;;;;;;4.38;2.10;;;;;;;13.15;67.62;99619.20;128415;1097;26481;-85
2021/05/31 07:57:06;;;;;;;2.63;2.00;;;;;;;13.10;67.92;99617.27;128224;1104;23565;-86
2021/05/31 07:59:35;;;;;;;3.73;1.70;;;;;;;13.12;67.74;99622.47;127998;1105;22775;-84
2021/05/31 08:02:03;;;;;;;3.20;1.40;;;;;;;13.10;65.47;99624.65;128368;1104;22812;-89
2021/05/31 08:04:32;;;;;;;2.17;1.97;;;;;;;13.10;67.91;99625.47;128057;1104;23473;-88
2021/05/31 08:07:01;;;;;;;8.73;2.10;;;;;;;13.17;66.99;99627.13;128025;1104;22832;-88
2021/05/31 08:09:50;;;;;;;5.63;1.90;;;;;;;13.18;66.69;99628.78;128375;1104;22814;-87
2021/05/31 08:12:19;;;;;;;5.18;1.95;;;;;;;13.18;67.74;99628.78;128173;1104;22740;-89
2021/05/31 08:14:48;;;;;;;2.77;1.13;;;;;;;13.22;67.89;99636.18;127980;1104;24154;-86
2021/05/31 08:17:17;;;;;;;5.93;1.65;;;;;;;13.31;67.44;99640.00;128023;1104;22922;-88
2021/05/31 08:19:46;;;;;;;1.33;1.23;;;;;;;13.41;67.53;99641.95;128076;1104;23023;-85
2021/05/31 08:22:15;;;;;;;2.45;1.13;;;;;;;13.54;66.75;99649.61;128040;1104;22750;-86
2021/05/31 08:24:44;;;;;;;5.73;1.43;;;;;;;13.60;65.72;99637.54;128092;1104;22776;-84
2021/05/31 08:27:13;;;;;;;2.40;1.10;;;;;;;13.63;66.58;99641.64;129235;1104;24187;-86
2021/05/31 08:29:41;;;;;;;2.50;1.30;;;;;;;13.69;66.00;99644.13;129149;1104;22862;-84
2021/05/31 08:32:12;;;;;;;1.28;1.18;;;;;;;13.71;65.42;99644.64;128979;1104;22976;-86
2021/05/31 08:34:42;;;;;;;2.25;1.10;;;;;;;13.70;65.44;99658.63;128899;1104;23533;-85
2021/05/31 08:37:11;;;;;;;3.38;1.30;;;;;;;13.71;65.23;99644.64;129046;1104;22683;-85
2021/05/31 08:39:41;;;;;;;4.73;1.30;;;;;;;13.74;64.77;99643.27;129041;1104;22924;-83
2021/05/31 08:42:10;;;;;;;4.38;1.30;;;;;;;13.79;64.59;99646.02;129791;1104;22503;-85
2021/05/31 08:44:38;;;;;;;1.80;1.10;;;;;;;13.76;65.08;99641.91;129554;1104;22836;-85
2021/05/31 08:47:09;;;;;;;2.25;1.08;;;;;;;13.80;64.95;99643.00;129267;1104;22669;-85
2021/05/31 08:49:39;;;;;;;3.33;1.13;;;;;;;13.82;64.56;99639.99;129024;1104;23087;-84
2021/05/31 08:52:08;;;;;;;1.60;0.80;;;;;;;13.80;63.30;99642.19;129040;1104;22777;-85
2021/05/31 08:54:36;;;;;;;2.00;1.30;;;;;;;13.74;64.11;99635.88;129054;1104;22674;-87
2021/05/31 08:57:04;;;;;;;3.63;0.85;;;;;;;13.74;64.32;99644.09;129060;1104;22939;-87
2021/05/31 08:59:33;;;;;;;4.18;1.45;;;;;;;13.75;63.13;99645.73;128793;1104;22642;-86
2021/05/31 09:02:02;;;;;;;4.25;1.18;;;;;;;13.77;63.53;99643.55;128817;1104;22784;-85
2021/05/31 09:04:33;;;;;;;1.53;1.17;;;;;;;13.74;63.26;99644.09;128540;1104;22821;-87
2021/05/31 09:07:02;;;;;;;1.13;0.88;;;;;;;13.71;64.74;99654.77;128105;1105;22922;-86
2021/05/31 09:09:43;;;;;;;1.20;1.10;;;;;;;13.64;64.13;99652.33;128007;1104;22813;-86
2021/05/31 09:12:20;;;;;;;1.78;1.30;;;;;;;13.55;64.15;99653.98;128095;1104;22828;-87
2021/05/31 09:15:10;;;;;;;3.55;1.80;;;;;;;13.47;63.23;99653.69;128075;1104;23465;-86
2021/05/31 09:17:40;;;;;;;4.75;0.95;;;;;;;13.38;63.17;99651.52;128698;1104;22835;-86
2021/05/31 09:20:09;;;;;;;1.88;1.00;;;;;;;13.34;63.92;99668.75;128172;1096;25720;-86
2021/05/31 09:23:04;;;;;;;1.23;0.90;;;;;;;13.29;63.27;99664.08;128092;1104;22757;-85
2021/05/31 09:25:34;;;;;;;1.55;1.20;;;;;;;13.23;64.02;99665.19;127980;1104;22931;-86
2021/05/31 09:28:11;;;;;;;4.45;1.20;;;;;;;13.19;63.76;99660.52;127919;1104;23533;-86
2021/05/31 09:30:44;;;;;;;8.20;1.10;;;;;;;13.15;64.30;99668.44;129586;1104;22765;-85
2021/05/31 09:33:13;;;;;;;2.68;1.00;;;;;;;13.15;64.20;99659.41;129862;1107;22652;-88
2021/05/31 09:35:44;;;;;;;1.45;1.30;;;;;;;13.16;65.21;99672.00;127651;1104;22813;-86
2021/05/31 09:38:15;;;;;;;1.90;1.15;;;;;;;13.20;63.97;99675.84;127682;1105;22786;-87
2021/05/31 09:40:55;;;;;;;1.23;1.10;;;;;;;13.21;64.36;99672.02;127757;1105;22733;-86
2021/05/31 09:43:26;;;;;;;1.83;1.20;;;;;;;13.25;64.92;99667.66;127730;1101;22744;-87
2021/05/31 09:45:55;;;;;;;1.00;0.93;;;;;;;13.29;64.11;99668.73;127548;1108;22879;-86
2021/05/31 09:48:32;;;;;;;2.15;1.48;;;;;;;13.32;65.21;99665.45;127550;1108;22778;-87
2021/05/31 09:51:01;;;;;;;3.90;1.28;;;;;;;13.38;64.16;99672.59;127218;1108;22796;-86
2021/05/31 09:53:36;;;;;;;5.15;1.45;;;;;;;13.39;64.19;99666.84;127700;1107;23356;-87
2021/05/31 09:56:17;;;;;;;1.00;0.90;;;;;;;13.41;63.72;99667.40;127333;1108;22770;-87
2021/05/31 09:58:53;;;;;;;2.08;0.98;;;;;;;13.41;64.22;99672.88;127018;1108;22791;-86
2021/05/31 10:01:40;;;;;;;1.80;1.20;;;;;;;13.42;63.88;99673.66;126910;1111;22764;-86
2021/05/31 10:07:23;;;;;;;8.68;3.63;;;;;;;13.34;63.62;99679.69;127826;1111;22707;-85
2021/05/31 10:09:52;;;;;;;2.20;1.13;;;;;;;13.28;62.75;99673.38;127908;1111;22674;-85
2021/05/31 10:12:21;;;;;;;1.83;1.40;;;;;;;13.21;63.12;99667.37;127973;1111;22725;-85
2021/05/31 10:14:50;;;;;;;5.43;1.95;;;;;;;13.17;63.44;99674.47;127667;1111;22864;-86
2021/05/31 10:17:18;;;;;;;9.38;2.43;;;;;;;13.13;63.90;99678.80;127633;1111;22984;-86
2021/05/31 10:19:47;;;;;;;2.10;1.70;;;;;;;13.12;64.14;99674.45;127505;1111;22850;-87
2021/05/31 10:22:16;;;;;;;2.63;1.38;;;;;;;13.13;64.82;99675.27;127799;1113;22672;-88
2021/05/31 10:24:44;;;;;;;3.10;1.60;;;;;;;13.18;65.45;99675.28;127145;1087;65786;-62
2021/05/31 10:27:33;;;;;;;1.63;1.25;;;;;;;13.24;65.50;99663.27;129178;1105;22627;-63
2021/05/31 10:30:13;;;;;;;2.00;1.30;;;;;;;13.32;65.41;99673.66;129245;1104;23175;-63
2021/05/31 10:32:41;;;;;;;2.85;1.58;;;;;;;13.39;64.83;99675.05;129671;1104;22570;-63
2021/05/31 10:35:18;;;;;;;4.78;1.50;;;;;;;13.43;64.18;99673.39;129445;1104;22577;-63
2021/05/31 10:37:56;;;;;;;2.33;1.35;;;;;;;13.45;64.68;99675.86;129641;1104;22594;-63
2021/05/31 10:40:36;;;;;;;5.70;1.70;;;;;;;13.43;63.49;99676.13;126991;1104;22795;-68
2021/05/31 10:43:07;;;;;;;5.85;1.70;;;;;;;13.41;64.39;99677.52;129638;1104;22573;-69
2021/05/31 10:45:36;;;;;;;3.68;2.00;;;;;;;13.37;64.10;99670.94;129709;1104;22661;-69
2021/05/31 10:48:15;;;;;;;3.75;1.70;;;;;;;13.31;63.61;99678.31;129635;1105;23171;-69
2021/05/31 10:51:27;;;;;;;7.15;1.93;;;;;;;13.23;63.64;99687.08;129315;1104;22546;-70
2021/05/31 10:54:06;;;;;;;4.58;1.53;;;;;;;13.12;63.65;99685.39;129279;1105;23280;-70
2021/05/31 10:56:35;;;;;;;5.30;2.25;;;;;;;13.07;64.06;99679.89;129504;1104;22591;-70
2021/05/31 10:59:03;;;;;;;6.15;1.73;;;;;;;13.04;64.34;99680.43;129255;1105;22626;-70
2021/05/31 11:01:31;;;;;;;3.33;1.93;;;;;;;13.04;65.51;99680.43;129651;1104;22591;-70
2021/05/31 11:04:02;;;;;;;5.03;1.63;;;;;;;13.09;64.85;99674.98;129596;1104;22607;-70
2021/05/31 11:06:39;;;;;;;2.40;1.53;;;;;;;13.16;65.17;99681.03;129615;1105;22582;-70
2021/05/31 11:09:09;;;;;;;3.93;1.98;;;;;;;13.21;64.40;99667.37;129125;1107;22699;-70
2021/05/31 11:12:00;;;;;;;6.83;1.68;;;;;;;13.24;64.57;99669.56;129154;1105;22558;-70
2021/05/31 11:14:38;;;;;;;4.50;2.10;;;;;;;13.32;64.23;99668.19;129605;1105;22649;-70
2021/05/31 11:17:16;;;;;;;4.45;1.65;;;;;;;13.40;64.75;99667.66;129547;1104;22558;-70
2021/05/31 11:19:54;;;;;;;6.55;1.90;;;;;;;13.48;63.44;99671.77;129190;1106;23469;-70
2021/05/31 11:22:25;;;;;;;4.85;1.63;;;;;;;13.53;63.48;99672.59;129217;1105;22593;-69
2021/05/31 11:25:03;;;;;;;5.15;1.40;;;;;;;13.61;64.37;99663.82;129565;1104;22617;-70
2021/05/31 11:27:39;;;;;;;4.18;1.50;;;;;;;13.69;63.85;99656.98;129563;1104;22621;-69
2021/05/31 11:30:09;;;;;;;4.18;1.73;;;;;;;13.75;64.10;99650.39;129107;1107;22576;-70
2021/05/31 11:32:38;;;;;;;2.25;1.45;;;;;;;13.81;63.10;99652.05;129206;1105;23298;-70
2021/05/31 11:35:08;;;;;;;2.70;1.33;;;;;;;13.85;63.82;99657.80;129400;1105;22722;-70
2021/05/31 11:37:57;;;;;;;5.63;2.00;;;;;;;13.90;64.31;99652.29;129197;1105;22585;-70
2021/05/31 11:40:28;;;;;;;3.87;2.00;;;;;;;13.96;63.58;99659.41;129491;1105;22673;-64
2021/05/31 11:43:01;;;;;;;3.65;2.08;;;;;;;13.97;62.43;99655.58;129601;1105;22590;-64
2021/05/31 11:45:32;;;;;;;2.35;1.30;;;;;;;13.96;61.44;99657.50;129410;1104;22720;-64
2021/05/31 11:48:13;;;;;;;2.80;1.48;;;;;;;13.90;62.18;99655.03;129548;1104;22617;-64
2021/05/31 11:50:43;;;;;;;3.15;1.10;;;;;;;13.89;62.09;99656.95;129458;1104;22528;-65
2021/05/31 11:53:12;;;;;;;3.95;0.93;;;;;;;13.89;61.06;99656.95;129526;1104;22649;-65
2021/05/31 11:55:42;;;;;;;2.43;0.98;;;;;;;13.89;60.96;99661.60;129463;1104;23287;-64
2021/05/31 11:58:11;;;;;;;2.58;1.28;;;;;;;13.88;61.25;99663.52;129517;1104;22598;-65
2021/05/31 12:00:42;;;;;;;5.70;1.20;;;;;;;13.88;61.22;99660.78;129465;1104;22699;-64
2021/05/31 12:03:18;;;;;;;2.33;1.13;;;;;;;13.86;60.90;99659.41;129477;1105;22730;-64
2021/05/31 12:05:47;;;;;;;4.83;1.30;;;;;;;13.80;60.61;99658.61;129558;1104;22559;-64
2021/05/31 12:08:16;;;;;;;7.05;1.75;;;;;;;13.76;60.60;99658.34;129520;1104;22585;-65
2021/05/31 12:10:46;;;;;;;4.48;1.05;;;;;;;13.76;60.64;99662.98;129490;1105;22598;-65
2021/05/31 12:13:15;;;;;;;2.38;1.03;;;;;;;13.76;61.05;99652.03;129659;1105;22732;-64
2021/05/31 12:15:44;;;;;;;2.83;1.38;;;;;;;13.78;60.42;99650.67;129516;1104;23249;-64
2021/05/31 12:18:16;;;;;;;4.38;1.80;;;;;;;13.80;60.80;99648.48;129236;1107;22565;-64